Time;durP1;ratioP1;P1;durP2;ratioP2;P2;SDS_P1;SDS_P2;PMS_P1;PMS_P2;Temp;Humidity;BMP_temperature;BMP_pressure;BME280_temperature;BME280_humidity;BME280_pressure;Samples;Min_cycle;Max_cycle;Signal;HPM_P1;HPM_P2
2022/05/06 00:01:50;;;;;;;12.33;10.53;;;;;;;7.99;100.00;101440.78;4944996;29;20214;-70
2022/05/06 00:04:17;;;;;;;12.70;10.73;;;;;;;7.90;100.00;101440.81;4944946;28;20203;-70
2022/05/06 00:06:43;;;;;;;16.20;10.93;;;;;;;7.84;100.00;101448.59;4938727;28;20322;-71
2022/05/06 00:09:10;;;;;;;14.20;10.23;;;;;;;7.82;100.00;101450.34;4946495;29;20226;-71
2022/05/06 00:11:36;;;;;;;12.77;11.47;;;;;;;7.85;100.00;101446.00;4941646;29;20202;-70
2022/05/06 00:14:04;;;;;;;14.47;11.00;;;;;;;7.94;100.00;101435.59;4937651;29;20204;-70
2022/05/06 00:16:30;;;;;;;13.33;10.60;;;;;;;7.81;100.00;101448.59;4939679;29;20278;-70
2022/05/06 00:18:58;;;;;;;13.40;10.63;;;;;;;7.72;100.00;101449.47;4938956;29;20758;-69
2022/05/06 00:21:24;;;;;;;15.63;11.50;;;;;;;7.63;100.00;101455.53;4943466;28;20665;-70
2022/05/06 00:23:50;;;;;;;15.57;11.70;;;;;;;7.62;100.00;101448.63;4941894;29;20586;-70
2022/05/06 00:26:17;;;;;;;13.43;11.60;;;;;;;7.70;100.00;101449.47;4933968;29;20314;-70
2022/05/06 00:28:43;;;;;;;13.40;11.37;;;;;;;7.66;100.00;101445.16;4944872;29;20226;-70
2022/05/06 00:31:09;;;;;;;12.73;10.53;;;;;;;7.54;100.00;101450.38;4944325;28;20211;-70
2022/05/06 00:33:36;;;;;;;14.80;11.03;;;;;;;7.57;100.00;101450.38;4945976;29;20745;-70
2022/05/06 00:36:05;;;;;;;12.60;11.00;;;;;;;7.55;100.00;101455.56;4941598;28;20202;-70
2022/05/06 00:38:32;;;;;;;11.87;10.53;;;;;;;7.64;100.00;101451.25;4948041;29;20698;-70
2022/05/06 00:40:59;;;;;;;12.50;11.17;;;;;;;7.57;100.00;101445.19;4944215;29;20206;-70
2022/05/06 00:43:25;;;;;;;13.10;11.70;;;;;;;7.64;100.00;101441.72;4947506;29;20558;-70
2022/05/06 00:45:55;;;;;;;15.13;11.17;;;;;;;7.51;100.00;101456.44;4938844;29;20195;-71
2022/05/06 00:48:24;;;;;;;14.17;12.50;;;;;;;7.34;100.00;101445.19;4937011;29;20233;-70
2022/05/06 00:50:51;;;;;;;18.23;12.43;;;;;;;7.29;100.00;101449.50;4938110;29;20202;-70
2022/05/06 00:53:19;;;;;;;14.93;12.10;;;;;;;7.33;100.00;101454.69;4945101;29;20227;-70
2022/05/06 00:55:46;;;;;;;13.97;11.57;;;;;;;7.21;100.00;101452.06;4950944;29;20203;-69
2022/05/06 00:58:13;;;;;;;15.87;12.03;;;;;;;7.26;100.00;101452.94;4945765;29;20666;-70
2022/05/06 01:00:40;;;;;;;14.20;12.00;;;;;;;7.18;100.00;101455.53;4939202;29;20211;-70
2022/05/06 01:03:06;;;;;;;14.07;11.63;;;;;;;7.10;100.00;101465.03;4944763;29;20195;-70
2022/05/06 01:05:33;;;;;;;13.93;11.30;;;;;;;7.04;100.00;101462.44;4942592;29;20453;-71
2022/05/06 01:08:00;;;;;;;15.57;11.57;;;;;;;7.00;100.00;101469.34;4938714;29;20218;-71
2022/05/06 01:10:28;;;;;;;13.93;11.27;;;;;;;6.98;100.00;101473.69;4937604;29;20204;-70
2022/05/06 01:12:54;;;;;;;12.93;11.03;;;;;;;7.03;100.00;101473.66;4941837;29;20615;-70
2022/05/06 01:15:26;;;;;;;12.70;11.13;;;;;;;6.99;100.00;101471.94;4934170;29;20286;-70
2022/05/06 01:17:59;;;;;;;12.13;10.63;;;;;;;6.97;100.00;101477.13;4940067;29;20216;-70
2022/05/06 01:20:27;;;;;;;12.47;11.00;;;;;;;6.88;100.00;101471.91;4931928;29;20207;-69
2022/05/06 01:22:58;;;;;;;13.63;12.07;;;;;;;6.90;100.00;101477.97;4935535;29;20199;-70
2022/05/06 01:25:25;;;;;;;12.63;11.33;;;;;;;6.82;100.00;101474.47;4945275;29;20262;-70
2022/05/06 01:27:55;;;;;;;14.67;11.87;;;;;;;6.80;100.00;101473.63;4937396;29;20227;-69
2022/05/06 01:30:29;;;;;;;14.23;12.00;;;;;;;6.81;100.00;101481.41;4946241;29;20701;-70
2022/05/06 01:32:57;;;;;;;14.57;11.67;;;;;;;6.90;100.00;101483.16;4949730;29;20222;-70
2022/05/06 01:35:26;;;;;;;13.87;12.17;;;;;;;6.91;100.00;101486.59;4943090;29;20203;-69
2022/05/06 01:37:56;;;;;;;15.37;12.67;;;;;;;6.76;100.00;101490.88;4941060;29;20218;-70
2022/05/06 01:40:25;;;;;;;16.23;12.47;;;;;;;6.71;100.00;101492.59;4943307;29;20198;-70
2022/05/06 01:42:57;;;;;;;19.07;12.87;;;;;;;6.69;100.00;101489.13;4946840;29;20299;-70
2022/05/06 01:45:26;;;;;;;14.93;12.83;;;;;;;6.64;100.00;101489.09;4944727;29;20904;-70
2022/05/06 01:47:54;;;;;;;14.60;12.43;;;;;;;6.62;100.00;101490.81;4935601;29;20285;-70
2022/05/06 01:50:25;;;;;;;17.37;13.23;;;;;;;6.57;100.00;101487.34;4945581;29;20207;-70
2022/05/06 01:52:51;;;;;;;18.40;13.70;;;;;;;6.58;100.00;101490.81;4942697;29;20622;-69
2022/05/06 01:55:20;;;;;;;15.23;13.00;;;;;;;6.77;100.00;101496.91;4931210;29;20215;-69
2022/05/06 01:57:57;;;;;;;16.00;12.73;;;;;;;6.60;100.00;101495.16;4934956;29;20319;-70
2022/05/06 02:00:27;;;;;;;18.40;13.20;;;;;;;6.53;100.00;101498.56;4936532;29;20207;-70
2022/05/06 02:02:56;;;;;;;14.77;12.13;;;;;;;6.62;100.00;101490.81;4943086;29;20195;-69
2022/05/06 02:05:36;;;;;;;14.17;11.07;;;;;;;6.57;100.00;101483.91;4944576;29;20543;-71
2022/05/06 02:08:03;;;;;;;14.63;11.73;;;;;;;6.48;100.00;101487.31;4945287;29;20238;-70
2022/05/06 02:10:32;;;;;;;12.93;11.23;;;;;;;6.51;100.00;101495.13;4944966;29;20700;-70
2022/05/06 02:13:02;;;;;;;14.00;12.50;;;;;;;6.43;100.00;101499.38;4937759;29;20222;-70
2022/05/06 02:15:45;;;;;;;16.47;12.50;;;;;;;6.62;100.00;101487.38;4945629;29;20717;-70
2022/05/06 02:18:23;;;;;;;14.93;11.67;;;;;;;6.44;100.00;101495.94;4941659;29;20924;-69
2022/05/06 02:21:12;;;;;;;12.90;11.60;;;;;;;6.51;100.00;101502.00;4938013;29;20686;-70
2022/05/06 02:23:53;;;;;;;13.87;12.30;;;;;;;6.47;100.00;101495.94;4940757;29;20318;-71
2022/05/06 02:26:42;;;;;;;16.40;12.60;;;;;;;6.39;100.00;101502.81;4937341;29;20211;-70
2022/05/06 02:29:08;;;;;;;14.27;12.47;;;;;;;6.40;100.00;101496.75;4939715;29;20326;-70
2022/05/06 02:34:20;;;;;;;17.07;12.47;;;;;;;6.29;100.00;101494.13;4908553;29;20246;-71
2022/05/06 02:36:50;;;;;;;14.00;12.10;;;;;;;6.31;100.00;101497.59;4938056;29;20203;-70
2022/05/06 02:39:36;;;;;;;13.23;11.87;;;;;;;6.41;100.00;101503.69;4934834;29;20365;-69
2022/05/06 02:42:12;;;;;;;17.17;13.13;;;;;;;6.49;100.00;101502.00;4941278;29;20209;-71
2022/05/06 02:44:44;;;;;;;17.33;13.20;;;;;;;6.48;100.00;101502.00;4944032;29;20585;-70
2022/05/06 02:47:12;;;;;;;15.90;13.40;;;;;;;6.50;100.00;101495.09;4936570;29;20205;-71
2022/05/06 02:49:38;;;;;;;15.30;13.07;;;;;;;6.47;100.00;101501.13;4946769;29;20936;-69
2022/05/06 02:52:09;;;;;;;14.10;12.53;;;;;;;6.50;100.00;101508.06;4943894;29;20774;-70
2022/05/06 02:54:35;;;;;;;13.33;11.50;;;;;;;6.50;100.00;101502.88;4931323;29;20211;-70
2022/05/06 02:57:02;;;;;;;14.80;12.60;;;;;;;6.30;100.00;101507.94;4931461;29;20364;-70
2022/05/06 02:59:32;;;;;;;15.43;13.30;;;;;;;6.23;100.00;101507.91;4939191;29;20231;-69
2022/05/06 03:01:58;;;;;;;13.37;11.93;;;;;;;6.22;100.00;101513.94;4941821;29;20202;-70
2022/05/06 03:04:25;;;;;;;17.73;12.30;;;;;;;6.20;100.00;101514.78;4944070;29;20198;-70
2022/05/06 03:06:53;;;;;;;13.70;11.97;;;;;;;6.07;100.00;101516.44;4937918;28;20262;-70
2022/05/06 03:09:32;;;;;;;14.83;11.90;;;;;;;6.10;100.00;101515.59;4939564;29;20222;-69
2022/05/06 03:12:00;;;;;;;14.97;12.60;;;;;;;6.06;100.00;101514.72;4939320;29;20306;-70
2022/05/06 03:14:28;;;;;;;16.60;13.13;;;;;;;6.01;100.00;101516.41;4934902;29;20217;-70
2022/05/06 03:17:25;;;;;;;15.63;12.90;;;;;;;6.03;100.00;101512.97;4928084;28;20247;-70
2022/05/06 03:19:51;;;;;;;12.50;10.87;;;;;;;6.14;100.00;101520.81;4940068;29;20269;-70
2022/05/06 03:22:18;;;;;;;15.80;12.17;;;;;;;5.95;100.00;101521.50;4943174;29;20203;-70
2022/05/06 03:24:46;;;;;;;14.80;11.93;;;;;;;5.91;100.00;101519.72;4937564;29;20610;-70
2022/05/06 03:29:53;;;;;;;15.37;12.23;;;;;;;5.83;100.00;101523.13;4937178;29;20286;-70
2022/05/06 03:32:22;;;;;;;13.10;11.27;;;;;;;5.76;100.00;101523.09;4942423;29;20206;-70
2022/05/06 03:34:51;;;;;;;12.53;11.07;;;;;;;5.77;100.00;101519.63;4940925;29;20203;-70
2022/05/06 03:37:17;;;;;;;15.30;11.20;;;;;;;5.75;100.00;101518.75;4939501;29;20610;-70
2022/05/06 03:39:46;;;;;;;14.20;11.20;;;;;;;5.66;100.00;101525.59;4946190;29;20309;-70
2022/05/06 03:42:13;;;;;;;12.77;11.13;;;;;;;5.69;100.00;101528.19;4940923;29;20255;-69
2022/05/06 03:44:42;;;;;;;12.83;11.53;;;;;;;5.76;100.00;101529.13;4944091;29;20188;-70
2022/05/06 03:47:09;;;;;;;15.07;12.50;;;;;;;5.73;100.00;101530.81;4935315;29;20215;-70
2022/05/06 03:49:36;;;;;;;15.00;12.67;;;;;;;5.77;100.00;101536.03;4948652;29;20230;-69
2022/05/06 03:52:05;;;;;;;13.40;12.00;;;;;;;5.72;100.00;101540.31;4938840;29;20210;-69
2022/05/06 03:54:33;;;;;;;12.17;10.90;;;;;;;5.81;100.00;101542.97;4938292;29;20222;-70
2022/05/06 03:57:00;;;;;;;15.10;11.90;;;;;;;5.82;100.00;101542.13;4936868;29;20207;-70
2022/05/06 03:59:26;;;;;;;14.40;12.90;;;;;;;5.94;100.00;101543.91;4940499;29;20229;-70
2022/05/06 04:02:03;;;;;;;17.67;13.87;;;;;;;5.99;100.00;101541.41;4942236;29;20371;-70
2022/05/06 04:04:32;;;;;;;18.90;14.57;;;;;;;5.99;100.00;101549.19;4941298;29;20247;-69
2022/05/06 04:07:05;;;;;;;18.13;14.43;;;;;;;5.98;100.00;101550.00;4941459;29;20250;-69
2022/05/06 04:09:37;;;;;;;17.10;14.63;;;;;;;6.05;100.00;101551.78;4935576;29;20301;-70
2022/05/06 04:12:05;;;;;;;22.50;15.63;;;;;;;6.09;100.00;101548.41;4945758;29;20214;-70
2022/05/06 04:14:35;;;;;;;17.10;15.30;;;;;;;6.16;100.00;101565.69;4935616;29;20345;-69
2022/05/06 04:17:03;;;;;;;16.80;14.70;;;;;;;6.32;100.00;101558.91;4952968;28;20257;-70
2022/05/06 04:19:33;;;;;;;23.17;16.00;;;;;;;6.47;100.00;101557.25;4939393;29;20227;-70
2022/05/06 04:24:58;;;;;;;21.30;15.97;;;;;;;6.56;100.00;101562.47;4940671;29;20195;-69
2022/05/06 04:27:27;;;;;;;18.10;14.97;;;;;;;6.54;100.00;101565.06;4940912;28;20203;-69
2022/05/06 04:29:57;;;;;;;19.57;16.23;;;;;;;6.54;100.00;101569.38;4936659;29;20690;-70
2022/05/06 04:32:28;;;;;;;18.07;15.13;;;;;;;6.61;100.00;101566.84;4936086;29;20539;-70
2022/05/06 04:34:55;;;;;;;22.20;18.10;;;;;;;6.64;100.00;101568.59;4944501;29;20236;-71
2022/05/06 04:37:23;;;;;;;19.13;16.50;;;;;;;6.64;100.00;101561.66;4942651;29;20219;-69
2022/05/06 04:39:53;;;;;;;21.37;16.40;;;;;;;6.83;100.00;101574.72;4944252;29;20289;-69
2022/05/06 04:42:19;;;;;;;21.43;17.33;;;;;;;6.87;100.00;101579.06;4944252;29;20209;-71
2022/05/06 04:44:46;;;;;;;20.07;17.37;;;;;;;6.85;100.00;101574.75;4948904;29;20582;-70
2022/05/06 04:47:13;;;;;;;23.77;19.07;;;;;;;6.93;100.00;101568.72;4963527;28;20709;-70
2022/05/06 04:49:41;;;;;;;23.10;18.27;;;;;;;6.93;100.00;101576.50;4941940;28;20233;-70
2022/05/06 04:52:08;;;;;;;25.20;18.37;;;;;;;7.16;100.00;101575.72;4942121;29;20204;-69
2022/05/06 04:54:37;;;;;;;23.17;18.40;;;;;;;7.23;100.00;101579.19;4941820;28;20233;-70
2022/05/06 04:57:05;;;;;;;29.00;19.70;;;;;;;7.35;100.00;101576.63;4937568;28;20219;-69
2022/05/06 04:59:35;;;;;;;24.33;20.03;;;;;;;7.40;100.00;101587.88;4941084;29;20285;-70
2022/05/06 05:02:01;;;;;;;23.60;18.70;;;;;;;7.34;100.00;101588.72;4945486;29;20211;-70
2022/05/06 05:04:29;;;;;;;23.93;18.50;;;;;;;7.38;100.00;101597.38;4955618;28;20214;-71
2022/05/06 05:07:02;;;;;;;25.47;18.73;;;;;;;7.41;100.00;101596.56;4947359;29;20199;-70
2022/05/06 05:09:30;;;;;;;22.17;19.07;;;;;;;7.50;100.00;101602.59;4939422;28;20226;-70
2022/05/06 05:11:59;;;;;;;25.10;18.93;;;;;;;7.56;100.00;101596.56;4945747;28;20198;-69
2022/05/06 05:14:35;;;;;;;26.73;19.13;;;;;;;7.54;100.00;101601.75;4956346;28;20218;-71
2022/05/06 05:17:02;;;;;;;25.87;18.63;;;;;;;7.67;100.00;101599.16;4940815;28;20218;-71
2022/05/06 05:19:28;;;;;;;25.87;18.10;;;;;;;7.80;100.00;101603.53;4942856;28;20234;-70
2022/05/06 05:21:58;;;;;;;23.73;19.10;;;;;;;7.92;100.00;101602.66;4944602;29;20207;-70
2022/05/06 05:24:25;;;;;;;26.30;20.13;;;;;;;8.02;100.00;101601.81;4942110;29;20258;-70
2022/05/06 05:26:54;;;;;;;26.77;18.50;;;;;;;8.14;100.00;101617.41;4938844;29;20202;-71
2022/05/06 05:29:24;;;;;;;24.03;17.60;;;;;;;8.20;100.00;101616.53;4937695;29;20638;-70
2022/05/06 05:31:52;;;;;;;21.30;18.07;;;;;;;8.37;100.00;101618.22;4957424;28;20218;-70
2022/05/06 05:34:19;;;;;;;20.87;17.27;;;;;;;8.46;100.00;101613.03;4939246;29;20226;-69
2022/05/06 05:36:47;;;;;;;23.23;16.80;;;;;;;8.58;100.00;101620.81;4938388;29;20200;-70
2022/05/06 05:39:14;;;;;;;24.77;18.37;;;;;;;8.67;100.00;101619.94;4942019;29;20232;-70
2022/05/06 05:41:40;;;;;;;19.60;16.73;;;;;;;8.69;100.00;101629.47;4941818;29;20230;-70
2022/05/06 05:49:38;;;;;;;25.10;16.80;;;;;;;9.05;100.00;101629.38;4944180;29;20227;-71
2022/05/06 05:52:06;;;;;;;23.90;16.53;;;;;;;9.13;100.00;101626.72;4941290;28;20253;-70
2022/05/06 05:54:33;;;;;;;25.60;17.47;;;;;;;9.30;100.00;101624.91;4944649;28;20282;-70
2022/05/06 05:57:00;;;;;;;26.23;17.60;;;;;;;9.36;100.00;101627.50;4944096;29;20209;-72
2022/05/06 05:59:27;;;;;;;26.43;17.37;;;;;;;9.47;100.00;101630.91;4932946;29;20322;-70
2022/05/06 06:01:58;;;;;;;22.90;17.53;;;;;;;9.62;100.00;101629.97;4937481;29;20824;-70
2022/05/06 06:04:25;;;;;;;22.73;16.23;;;;;;;9.76;100.00;101636.81;4938552;29;20195;-70
2022/05/06 06:06:51;;;;;;;18.10;15.13;;;;;;;9.89;100.00;101637.59;4936345;29;20680;-70
2022/05/06 06:09:22;;;;;;;19.77;15.30;;;;;;;10.02;100.00;101640.09;4947868;29;20259;-70
2022/05/06 06:11:49;;;;;;;20.00;15.13;;;;;;;10.19;100.00;101639.09;4933170;29;20674;-70
2022/05/06 06:14:17;;;;;;;22.93;13.67;;;;;;;10.34;100.00;101644.22;4941536;29;20289;-70
2022/05/06 06:16:44;;;;;;;23.27;13.87;;;;;;;10.50;100.00;101647.56;4934421;29;20209;-71
2022/05/06 06:19:12;;;;;;;17.20;12.90;;;;;;;10.60;100.00;101649.16;4937095;29;20237;-70
2022/05/06 06:21:43;;;;;;;18.33;12.83;;;;;;;10.80;100.00;101661.16;4948498;28;20209;-70
2022/05/06 06:24:12;;;;;;;15.97;12.30;;;;;;;10.99;100.00;101659.19;4931305;29;20287;-70
2022/05/06 06:26:39;;;;;;;14.27;11.00;;;;;;;11.08;99.62;101660.84;4934043;29;20290;-70
2022/05/06 06:29:11;;;;;;;15.80;10.93;;;;;;;11.25;98.57;101658.03;4937982;29;20230;-70
2022/05/06 06:31:38;;;;;;;15.00;11.07;;;;;;;11.30;96.53;101659.69;4941089;29;20624;-69
2022/05/06 06:34:05;;;;;;;15.73;10.60;;;;;;;11.45;98.00;101661.25;4938231;29;20207;-70
2022/05/06 06:36:37;;;;;;;11.90;8.77;;;;;;;11.64;93.64;101668.81;4935740;28;20233;-71
2022/05/06 06:39:04;;;;;;;13.30;8.63;;;;;;;11.83;91.31;101669.44;4961915;28;20313;-70
2022/05/06 06:41:36;;;;;;;9.23;7.23;;;;;;;12.00;89.74;101670.09;4938405;29;20207;-70
2022/05/06 06:44:02;;;;;;;11.80;7.13;;;;;;;12.14;87.02;101682.94;4934027;29;20206;-70
2022/05/06 06:46:42;;;;;;;9.40;6.70;;;;;;;12.17;85.73;101680.28;4942523;28;20688;-71
2022/05/06 06:49:47;;;;;;;11.50;6.97;;;;;;;12.20;84.11;101672.38;4912862;29;20318;-70
2022/05/06 06:52:38;;;;;;;12.27;7.07;;;;;;;12.35;84.06;101679.13;4894658;29;20213;-70
2022/05/06 06:55:05;;;;;;;9.80;6.70;;;;;;;12.46;83.61;101679.78;4924202;29;20247;-69
2022/05/06 06:57:31;;;;;;;12.83;6.63;;;;;;;12.58;83.14;101683.09;4939707;29;20209;-70
2022/05/06 06:59:58;;;;;;;10.43;6.80;;;;;;;12.63;81.14;101687.34;4936749;29;20213;-72
2022/05/06 07:02:24;;;;;;;11.97;6.43;;;;;;;12.60;80.16;101681.31;4938379;28;20215;-70
2022/05/06 07:04:51;;;;;;;10.90;6.63;;;;;;;12.64;81.87;101681.22;4941283;28;20258;-70
2022/05/06 07:12:46;;;;;;;10.30;6.50;;;;;;;13.11;79.46;101696.06;4939335;29;20318;-71
2022/05/06 07:15:13;;;;;;;10.77;7.03;;;;;;;13.13;79.26;101691.66;4943909;28;20594;-72
2022/05/06 07:17:39;;;;;;;8.77;6.17;;;;;;;13.21;80.67;101681.91;4935603;28;20739;-70
2022/05/06 07:20:06;;;;;;;11.77;6.00;;;;;;;13.37;79.85;101685.97;4941124;29;20721;-70
2022/05/06 07:22:33;;;;;;;11.23;6.03;;;;;;;13.37;77.13;101696.44;4935103;29;20859;-70
2022/05/06 07:24:59;;;;;;;11.13;6.63;;;;;;;13.46;79.41;101689.28;4939941;28;20207;-70
2022/05/06 07:27:27;;;;;;;10.43;5.53;;;;;;;13.61;76.17;101694.16;4936190;29;20212;-71
2022/05/06 07:29:53;;;;;;;11.97;5.90;;;;;;;13.68;74.88;101687.03;4940159;29;20699;-70
2022/05/06 07:32:19;;;;;;;12.50;6.37;;;;;;;13.74;75.91;101693.03;4947952;28;20685;-71
2022/05/06 07:34:46;;;;;;;7.87;5.30;;;;;;;13.81;74.34;101702.47;4940939;28;20219;-71
2022/05/06 07:37:12;;;;;;;11.77;6.30;;;;;;;13.91;73.62;101702.25;4944881;29;20203;-72
2022/05/06 07:39:39;;;;;;;8.93;5.33;;;;;;;13.91;72.80;101708.38;4942893;29;20219;-71
2022/05/06 07:42:06;;;;;;;12.43;5.67;;;;;;;13.99;74.37;101709.03;4937825;29;20215;-71
2022/05/06 07:44:33;;;;;;;8.37;5.13;;;;;;;14.07;72.39;101700.13;4936613;29;20204;-70
2022/05/06 07:47:00;;;;;;;8.70;5.50;;;;;;;14.25;72.72;101706.69;4937255;29;20681;-71
2022/05/06 07:49:27;;;;;;;9.07;5.43;;;;;;;14.40;72.06;101693.19;4941929;29;20233;-71
2022/05/06 07:51:53;;;;;;;7.17;5.67;;;;;;;14.49;70.00;101702.59;4942136;28;20207;-71
2022/05/06 07:54:20;;;;;;;10.17;5.47;;;;;;;14.45;74.45;101687.84;4939892;29;20222;-71
2022/05/06 07:56:46;;;;;;;10.17;5.80;;;;;;;14.44;71.35;101700.13;4939282;29;20231;-70
2022/05/06 07:59:13;;;;;;;10.20;5.90;;;;;;;14.52;70.19;101690.28;4940598;28;20233;-70
2022/05/06 08:04:34;;;;;;;9.03;5.73;;;;;;;14.80;66.94;101699.22;4942118;29;20207;-70
2022/05/06 08:07:00;;;;;;;8.30;5.00;;;;;;;14.80;67.63;101696.59;4943567;29;20206;-71
2022/05/06 08:09:26;;;;;;;8.87;4.93;;;;;;;14.80;65.84;101699.22;4943838;28;20229;-70
2022/05/06 08:11:53;;;;;;;8.27;4.70;;;;;;;14.80;64.86;101693.97;4946420;29;20215;-70
2022/05/06 08:14:20;;;;;;;11.00;4.93;;;;;;;15.01;65.32;101700.41;4950849;29;20226;-70
2022/05/06 08:16:49;;;;;;;9.30;4.40;;;;;;;15.07;63.57;101703.72;4946415;29;20214;-71
2022/05/06 08:19:16;;;;;;;8.83;5.17;;;;;;;15.14;64.42;101702.66;4946227;28;20235;-71
2022/05/06 08:21:42;;;;;;;6.50;3.90;;;;;;;15.17;62.96;101704.31;4944729;29;20241;-70
2022/05/06 08:24:09;;;;;;;7.37;4.30;;;;;;;15.11;61.93;101708.00;4944830;28;20214;-71
2022/05/06 08:26:36;;;;;;;8.77;4.13;;;;;;;15.19;61.82;101704.28;4944124;28;20207;-71
2022/05/06 08:29:04;;;;;;;6.67;3.80;;;;;;;15.31;60.53;101706.56;4938611;29;20228;-71
2022/05/06 08:31:32;;;;;;;4.97;3.43;;;;;;;15.24;58.63;101711.13;4939197;29;20206;-71
2022/05/06 08:34:00;;;;;;;7.43;3.93;;;;;;;15.32;59.57;101709.16;4942525;29;20675;-70
2022/05/06 08:36:27;;;;;;;7.17;3.40;;;;;;;15.40;62.09;101705.44;4940945;29;20719;-71
2022/05/06 08:38:53;;;;;;;5.70;3.80;;;;;;;15.42;59.15;101703.63;4945709;29;20303;-71
2022/05/06 08:41:20;;;;;;;8.97;3.30;;;;;;;15.55;57.95;101709.38;4949273;29;20278;-70
2022/05/06 08:43:46;;;;;;;6.57;2.80;;;;;;;15.63;57.81;101707.38;4939118;29;20849;-70
2022/05/06 08:51:48;;;;;;;6.20;2.60;;;;;;;15.94;56.61;101707.34;4945130;29;20219;-71
2022/05/06 08:54:16;;;;;;;5.93;3.40;;;;;;;16.15;55.43;101708.44;4947140;28;20216;-71
2022/05/06 08:56:43;;;;;;;7.00;3.03;;;;;;;16.21;54.62;101699.47;4935775;29;20592;-70
2022/05/06 08:59:10;;;;;;;4.47;2.73;;;;;;;16.24;56.01;101699.38;4945598;28;20233;-70
2022/05/06 09:01:36;;;;;;;4.57;3.00;;;;;;;16.47;54.49;101703.88;4934282;29;20205;-71
2022/05/06 09:04:05;;;;;;;4.27;3.33;;;;;;;16.58;53.23;101703.50;4949342;29;20203;-71
2022/05/06 09:06:32;;;;;;;5.30;3.03;;;;;;;16.67;54.07;101700.53;4935475;28;20236;-71
2022/05/06 09:09:01;;;;;;;6.00;3.13;;;;;;;16.71;52.83;101691.66;4940050;29;20313;-71
2022/05/06 09:14:15;;;;;;;3.70;2.60;;;;;;;16.79;54.74;101699.25;4944353;29;20510;-71
2022/05/06 09:16:40;;;;;;;4.53;2.60;;;;;;;16.86;54.62;101703.44;4933350;29;20206;-71
2022/05/06 09:19:19;;;;;;;3.27;2.20;;;;;;;16.79;51.38;101708.03;4934195;29;20234;-71
2022/05/06 09:22:07;;;;;;;6.50;2.37;;;;;;;16.75;51.42;101698.53;4938094;29;20294;-70
2022/05/06 09:24:34;;;;;;;2.87;1.50;;;;;;;16.86;49.93;101702.59;4940720;28;20187;-71
2022/05/06 09:27:03;;;;;;;2.40;1.80;;;;;;;16.90;49.76;101706.81;4940269;29;20207;-71
2022/05/06 09:29:35;;;;;;;6.20;1.93;;;;;;;17.18;50.28;101689.13;4943452;28;20226;-70
2022/05/06 09:32:19;;;;;;;4.47;2.20;;;;;;;17.18;48.28;101704.03;4946907;28;20195;-71
2022/05/06 09:34:49;;;;;;;3.17;1.77;;;;;;;17.42;52.56;101687.31;4934656;28;20310;-71
2022/05/06 09:37:47;;;;;;;3.63;2.30;;;;;;;17.70;50.31;101691.53;4932465;29;20205;-71
2022/05/06 09:40:15;;;;;;;4.60;2.13;;;;;;;17.81;52.91;101690.25;4948720;29;20210;-71
2022/05/06 09:42:43;;;;;;;4.97;2.40;;;;;;;17.92;54.24;101678.41;4938696;28;20299;-71
2022/05/06 09:45:11;;;;;;;3.77;2.10;;;;;;;17.97;50.27;101694.88;4936693;29;20227;-71
2022/05/06 09:47:37;;;;;;;2.10;1.63;;;;;;;18.17;48.48;101694.09;4941307;29;20631;-71
2022/05/06 09:50:08;;;;;;;3.97;1.67;;;;;;;17.74;47.67;101697.53;4936162;29;20195;-71
2022/05/06 09:52:34;;;;;;;3.00;1.50;;;;;;;17.45;47.63;101699.53;4944283;29;20210;-71
2022/05/06 09:55:02;;;;;;;4.80;1.90;;;;;;;17.12;48.31;101696.38;4933136;29;20215;-71
2022/05/06 09:57:29;;;;;;;2.90;1.90;;;;;;;17.01;48.57;101688.88;4942792;29;20250;-71
2022/05/06 09:59:55;;;;;;;3.83;1.90;;;;;;;16.94;48.57;101688.22;4940348;28;20230;-71
2022/05/06 10:02:21;;;;;;;1.70;1.50;;;;;;;16.99;47.18;101695.94;4936087;29;20207;-71
2022/05/06 10:04:49;;;;;;;3.20;1.33;;;;;;;17.03;47.26;101693.16;4938846;28;20203;-71
2022/05/06 10:07:18;;;;;;;3.20;1.27;;;;;;;17.26;47.24;101696.72;4940914;28;20798;-70
2022/05/06 10:09:58;;;;;;;4.07;1.30;;;;;;;17.62;48.42;101692.75;4940668;29;20539;-71
2022/05/06 10:12:26;;;;;;;2.23;1.60;;;;;;;17.79;45.95;101696.44;4943951;29;20210;-71
2022/05/06 10:14:54;;;;;;;2.73;1.40;;;;;;;17.96;47.88;101682.63;4934534;29;20219;-71
2022/05/06 10:17:55;;;;;;;2.87;1.67;;;;;;;18.38;47.71;101687.97;4932078;29;20207;-71
2022/05/06 10:20:58;;;;;;;3.33;1.57;;;;;;;18.59;46.62;101681.78;4942251;29;20569;-70
2022/05/06 10:23:43;;;;;;;3.40;1.60;;;;;;;18.72;48.21;101672.41;4939787;29;20238;-71
2022/05/06 10:26:30;;;;;;;3.70;1.50;;;;;;;18.79;47.82;101674.78;4939098;29;20272;-71
2022/05/06 10:34:27;;;;;;;1.30;1.10;;;;;;;18.81;42.83;101675.56;4937935;29;20750;-71
2022/05/06 10:36:55;;;;;;;2.97;1.10;;;;;;;18.54;42.77;101673.22;4941419;29;20211;-71
2022/05/06 10:39:23;;;;;;;3.00;1.27;;;;;;;18.27;43.32;101664.66;4935219;28;20226;-72
2022/05/06 10:42:02;;;;;;;3.17;1.07;;;;;;;18.34;43.95;101676.69;4948648;28;20253;-71
2022/05/06 10:44:38;;;;;;;2.67;1.00;;;;;;;18.42;43.49;101661.38;4940341;28;20279;-72
2022/05/06 10:47:46;;;;;;;1.80;1.17;;;;;;;18.59;43.09;101663.31;4946530;28;20210;-72
2022/05/06 10:50:16;;;;;;;1.30;1.00;;;;;;;18.63;42.09;101666.66;4935379;29;20198;-70
2022/05/06 10:52:44;;;;;;;3.13;1.00;;;;;;;18.63;41.92;101656.97;4940456;29;20616;-72
2022/05/06 10:55:13;;;;;;;5.73;1.17;;;;;;;18.68;45.42;101641.75;4940840;28;20223;-72
2022/05/06 10:57:48;;;;;;;1.60;1.03;;;;;;;18.79;46.99;101637.78;4936431;29;20211;-72
2022/05/06 11:00:17;;;;;;;1.97;0.97;;;;;;;19.19;44.97;101633.34;4940726;28;20209;-72
2022/05/06 11:02:45;;;;;;;2.00;1.10;;;;;;;19.48;43.70;101637.28;4935749;29;20198;-72
2022/05/06 11:05:12;;;;;;;2.30;1.00;;;;;;;19.52;41.47;101638.84;4937730;29;20212;-72
2022/05/06 11:07:41;;;;;;;2.73;1.10;;;;;;;19.51;44.12;101633.63;4942881;28;20213;-71
2022/05/06 11:10:08;;;;;;;1.63;1.20;;;;;;;19.51;40.52;101634.50;4945606;28;20203;-72
2022/05/06 11:12:37;;;;;;;1.77;1.10;;;;;;;19.25;41.57;101641.84;4945325;28;20214;-71
2022/05/06 11:15:06;;;;;;;3.00;1.10;;;;;;;19.05;41.92;101632.22;4950113;28;20254;-71
2022/05/06 11:17:34;;;;;;;1.13;1.00;;;;;;;18.87;44.19;101627.75;4937455;28;20203;-70
2022/05/06 11:20:03;;;;;;;2.03;1.03;;;;;;;18.73;42.87;101623.94;4944255;28;20198;-71
2022/05/06 11:22:33;;;;;;;1.10;0.80;;;;;;;18.51;42.04;101623.16;4938319;28;20680;-72
2022/05/06 11:25:00;;;;;;;4.23;1.10;;;;;;;18.39;42.54;101615.78;4941584;29;20199;-70
2022/05/06 11:27:26;;;;;;;1.37;1.00;;;;;;;18.36;42.97;101616.75;4945692;28;20211;-71
2022/05/06 11:29:55;;;;;;;1.70;1.10;;;;;;;18.33;41.37;101623.03;4939841;28;20852;-71
2022/05/06 11:32:23;;;;;;;2.33;1.00;;;;;;;18.44;42.68;101621.72;4940476;29;20215;-71
2022/05/06 11:34:56;;;;;;;3.70;0.90;;;;;;;18.69;42.74;101614.41;4948437;28;20207;-70
2022/05/06 11:37:23;;;;;;;0.80;0.80;;;;;;;19.01;43.68;101606.00;4947245;28;20211;-71
2022/05/06 11:39:50;;;;;;;1.40;0.90;;;;;;;19.38;43.53;101605.13;4941914;29;20320;-71
2022/05/06 11:42:21;;;;;;;1.10;0.87;;;;;;;19.51;41.82;101613.34;4944457;28;20195;-71
2022/05/06 11:47:41;;;;;;;2.30;1.00;;;;;;;19.53;39.83;101606.19;4938847;29;20662;-71
2022/05/06 11:50:10;;;;;;;1.07;0.97;;;;;;;19.69;41.83;101595.72;4946698;28;20671;-70
2022/05/06 11:52:38;;;;;;;1.53;1.00;;;;;;;19.61;41.12;101601.38;4941276;29;20359;-70
2022/05/06 11:55:06;;;;;;;2.50;0.60;;;;;;;19.65;40.03;101605.59;4946470;29;20608;-71
2022/05/06 11:57:35;;;;;;;1.33;0.90;;;;;;;19.94;40.16;101605.97;4941996;29;20209;-71
2022/05/06 12:00:03;;;;;;;0.73;0.60;;;;;;;19.93;39.23;101611.31;4935172;29;20245;-71
2022/05/06 12:02:47;;;;;;;0.93;0.70;;;;;;;19.54;38.42;101614.97;4945044;29;20199;-70
2022/05/06 12:05:15;;;;;;;1.63;0.97;;;;;;;19.26;38.47;101610.97;4943151;29;20206;-73